Anvle, Pennsylvania
Current Conditions -  °F | °C
As of 5:18 AM on Saturday 20 Dec 2014 (Local Time) from KMUI Reporting Station
Overcast Overcast  
Wind Chill: 25°   Ceiling: 2900
Heat Index: 30°   Visibility: 10mi
Dew Point: 18°   Wind: 5mph
Humidity: 60%   Direction: 360°N
Pressure: 30.25"   Gusts: NA
Location:  40.43°N, 76.56°W
Report Text: KMUI 201018Z AUTO 36004KT 10SM OVC029 M01/M08 A3025 RMK AO2
Loading
Personal Weather Stations






























Interactive Weather Map New forecast layout! Learn more

10-Day Weather Forecast

Advertisements
Track Severe Weather on mobile